sensor_id;sensor_type;location;lat;lon;timestamp;temperature;humidity
23259;DHT22;11798;51.528;7.240;2023-02-01T00:00:32;5.10;99.90
23259;DHT22;11798;51.528;7.240;2023-02-01T00:03:00;5.20;99.90
23259;DHT22;11798;51.528;7.240;2023-02-01T00:05:25;5.20;99.90
23259;DHT22;11798;51.528;7.240;2023-02-01T00:07:51;5.20;99.90
23259;DHT22;11798;51.528;7.240;2023-02-01T00:10:17;5.30;99.90
23259;DHT22;11798;51.528;7.240;2023-02-01T00:12:43;5.30;99.90
23259;DHT22;11798;51.528;7.240;2023-02-01T00:15:09;5.20;99.90
23259;DHT22;11798;51.528;7.240;2023-02-01T00:17:34;5.30;99.90
23259;DHT22;11798;51.528;7.240;2023-02-01T00:20:00;5.20;99.90
23259;DHT22;11798;51.528;7.240;2023-02-01T00:22:26;5.30;99.90
23259;DHT22;11798;51.528;7.240;2023-02-01T00:24:51;5.20;99.90
23259;DHT22;11798;51.528;7.240;2023-02-01T00:27:17;5.20;99.90
23259;DHT22;11798;51.528;7.240;2023-02-01T00:29:45;5.20;99.90
23259;DHT22;11798;51.528;7.240;2023-02-01T00:32:11;5.20;99.90
23259;DHT22;11798;51.528;7.240;2023-02-01T00:34:37;5.20;99.90
23259;DHT22;11798;51.528;7.240;2023-02-01T00:37:03;5.20;99.90
23259;DHT22;11798;51.528;7.240;2023-02-01T00:39:28;5.20;99.90
23259;DHT22;11798;51.528;7.240;2023-02-01T00:41:54;5.20;99.90
23259;DHT22;11798;51.528;7.240;2023-02-01T00:44:19;5.20;99.90
23259;DHT22;11798;51.528;7.240;2023-02-01T00:46:45;5.20;99.90
23259;DHT22;11798;51.528;7.240;2023-02-01T00:49:10;5.20;99.90
23259;DHT22;11798;51.528;7.240;2023-02-01T00:51:36;5.20;99.90
23259;DHT22;11798;51.528;7.240;2023-02-01T00:54:01;5.20;99.90
23259;DHT22;11798;51.528;7.240;2023-02-01T00:56:28;5.20;99.90
23259;DHT22;11798;51.528;7.240;2023-02-01T00:58:54;5.20;99.90
23259;DHT22;11798;51.528;7.240;2023-02-01T01:01:22;5.20;99.90
23259;DHT22;11798;51.528;7.240;2023-02-01T01:03:52;5.20;99.90
23259;DHT22;11798;51.528;7.240;2023-02-01T01:06:21;5.20;99.90
23259;DHT22;11798;51.528;7.240;2023-02-01T01:08:47;5.20;99.90
23259;DHT22;11798;51.528;7.240;2023-02-01T01:11:15;5.20;99.90
23259;DHT22;11798;51.528;7.240;2023-02-01T01:13:41;5.30;99.90
23259;DHT22;11798;51.528;7.240;2023-02-01T01:16:08;5.20;99.90
23259;DHT22;11798;51.528;7.240;2023-02-01T01:18:34;5.30;99.90
23259;DHT22;11798;51.528;7.240;2023-02-01T01:21:00;5.20;99.90
23259;DHT22;11798;51.528;7.240;2023-02-01T01:23:27;5.20;99.90
23259;DHT22;11798;51.528;7.240;2023-02-01T01:25:52;5.20;99.90
23259;DHT22;11798;51.528;7.240;2023-02-01T01:28:18;5.20;99.90
23259;DHT22;11798;51.528;7.240;2023-02-01T01:30:44;5.20;99.90
23259;DHT22;11798;51.528;7.240;2023-02-01T01:33:10;5.20;99.90
23259;DHT22;11798;51.528;7.240;2023-02-01T01:35:36;5.20;99.90
23259;DHT22;11798;51.528;7.240;2023-02-01T01:38:02;5.20;99.90
23259;DHT22;11798;51.528;7.240;2023-02-01T01:40:29;5.30;99.90
23259;DHT22;11798;51.528;7.240;2023-02-01T01:42:55;5.30;99.90
23259;DHT22;11798;51.528;7.240;2023-02-01T01:45:26;5.20;99.90
23259;DHT22;11798;51.528;7.240;2023-02-01T01:48:07;5.20;99.90
23259;DHT22;11798;51.528;7.240;2023-02-01T01:53:05;5.20;99.90
23259;DHT22;11798;51.528;7.240;2023-02-01T01:55:35;5.20;99.90
23259;DHT22;11798;51.528;7.240;2023-02-01T01:58:06;5.20;99.90
23259;DHT22;11798;51.528;7.240;2023-02-01T02:00:33;5.20;99.90
23259;DHT22;11798;51.528;7.240;2023-02-01T02:03:14;5.20;99.90
23259;DHT22;11798;51.528;7.240;2023-02-01T02:05:40;5.20;99.90
23259;DHT22;11798;51.528;7.240;2023-02-01T02:08:06;5.30;99.90
23259;DHT22;11798;51.528;7.240;2023-02-01T02:10:41;5.20;99.90
23259;DHT22;11798;51.528;7.240;2023-02-01T02:13:31;5.30;99.90
23259;DHT22;11798;51.528;7.240;2023-02-01T02:46:12;5.30;99.90
23259;DHT22;11798;51.528;7.240;2023-02-01T02:49:11;5.30;99.90
23259;DHT22;11798;51.528;7.240;2023-02-01T02:51:49;5.30;99.90
23259;DHT22;11798;51.528;7.240;2023-02-01T02:54:38;5.20;99.90
23259;DHT22;11798;51.528;7.240;2023-02-01T02:57:19;5.20;99.90
23259;DHT22;11798;51.528;7.240;2023-02-01T03:00:08;5.20;99.90
23259;DHT22;11798;51.528;7.240;2023-02-01T03:02:53;5.20;99.90
23259;DHT22;11798;51.528;7.240;2023-02-01T03:05:43;5.20;99.90
23259;DHT22;11798;51.528;7.240;2023-02-01T03:08:13;5.10;99.90
23259;DHT22;11798;51.528;7.240;2023-02-01T03:10:58;5.10;99.90
23259;DHT22;11798;51.528;7.240;2023-02-01T03:16:09;5.10;99.90
23259;DHT22;11798;51.528;7.240;2023-02-01T03:21:17;5.10;99.90
23259;DHT22;11798;51.528;7.240;2023-02-01T03:23:44;5.10;99.90
23259;DHT22;11798;51.528;7.240;2023-02-01T03:26:14;5.10;99.90
23259;DHT22;11798;51.528;7.240;2023-02-01T03:28:45;5.10;99.90
23259;DHT22;11798;51.528;7.240;2023-02-01T03:31:13;5.00;99.90
23259;DHT22;11798;51.528;7.240;2023-02-01T03:33:39;5.00;99.90
23259;DHT22;11798;51.528;7.240;2023-02-01T03:36:31;5.00;99.90
23259;DHT22;11798;51.528;7.240;2023-02-01T03:39:07;5.00;99.90
23259;DHT22;11798;51.528;7.240;2023-02-01T03:41:43;5.00;99.90
23259;DHT22;11798;51.528;7.240;2023-02-01T03:47:05;5.00;99.90
23259;DHT22;11798;51.528;7.240;2023-02-01T03:49:54;5.00;99.90
23259;DHT22;11798;51.528;7.240;2023-02-01T03:52:28;5.00;99.90
23259;DHT22;11798;51.528;7.240;2023-02-01T03:54:55;5.00;99.90
23259;DHT22;11798;51.528;7.240;2023-02-01T03:57:29;5.00;99.90
23259;DHT22;11798;51.528;7.240;2023-02-01T04:00:09;5.00;99.90
23259;DHT22;11798;51.528;7.240;2023-02-01T04:02:35;5.00;99.90
23259;DHT22;11798;51.528;7.240;2023-02-01T04:05:00;5.00;99.90
23259;DHT22;11798;51.528;7.240;2023-02-01T04:07:26;5.00;99.90
23259;DHT22;11798;51.528;7.240;2023-02-01T04:09:52;5.00;99.90
23259;DHT22;11798;51.528;7.240;2023-02-01T04:12:17;5.00;99.90
23259;DHT22;11798;51.528;7.240;2023-02-01T04:14:43;5.00;99.90
23259;DHT22;11798;51.528;7.240;2023-02-01T04:17:08;5.10;99.90
23259;DHT22;11798;51.528;7.240;2023-02-01T04:19:34;5.10;99.90
23259;DHT22;11798;51.528;7.240;2023-02-01T04:21:59;5.10;99.90
23259;DHT22;11798;51.528;7.240;2023-02-01T04:24:25;5.10;99.90
23259;DHT22;11798;51.528;7.240;2023-02-01T04:26:50;5.10;99.90
23259;DHT22;11798;51.528;7.240;2023-02-01T04:29:16;5.10;99.90
23259;DHT22;11798;51.528;7.240;2023-02-01T04:31:41;5.10;99.90
23259;DHT22;11798;51.528;7.240;2023-02-01T04:34:07;5.10;99.90
23259;DHT22;11798;51.528;7.240;2023-02-01T04:36:32;5.10;99.90
23259;DHT22;11798;51.528;7.240;2023-02-01T04:38:58;5.10;99.90
23259;DHT22;11798;51.528;7.240;2023-02-01T04:41:23;5.10;99.90
23259;DHT22;11798;51.528;7.240;2023-02-01T04:43:50;5.10;99.90
23259;DHT22;11798;51.528;7.240;2023-02-01T04:46:16;5.10;99.90
23259;DHT22;11798;51.528;7.240;2023-02-01T04:48:42;5.20;99.90
23259;DHT22;11798;51.528;7.240;2023-02-01T04:51:08;5.20;99.90
23259;DHT22;11798;51.528;7.240;2023-02-01T04:53:35;5.20;99.90
23259;DHT22;11798;51.528;7.240;2023-02-01T04:56:00;5.20;99.90
23259;DHT22;11798;51.528;7.240;2023-02-01T04:58:26;5.20;99.90
23259;DHT22;11798;51.528;7.240;2023-02-01T05:00:51;5.20;99.90
23259;DHT22;11798;51.528;7.240;2023-02-01T05:03:17;5.20;99.90
23259;DHT22;11798;51.528;7.240;2023-02-01T05:05:43;5.20;99.90
23259;DHT22;11798;51.528;7.240;2023-02-01T05:08:08;5.20;99.90
23259;DHT22;11798;51.528;7.240;2023-02-01T05:10:34;5.20;99.90
23259;DHT22;11798;51.528;7.240;2023-02-01T05:13:00;5.20;99.90
23259;DHT22;11798;51.528;7.240;2023-02-01T05:15:44;5.20;99.90
23259;DHT22;11798;51.528;7.240;2023-02-01T05:18:11;5.10;99.90
23259;DHT22;11798;51.528;7.240;2023-02-01T05:20:37;5.10;99.90
23259;DHT22;11798;51.528;7.240;2023-02-01T05:23:02;5.10;99.90
23259;DHT22;11798;51.528;7.240;2023-02-01T05:25:28;5.10;99.90
23259;DHT22;11798;51.528;7.240;2023-02-01T05:27:54;5.20;99.90
23259;DHT22;11798;51.528;7.240;2023-02-01T05:30:19;5.20;99.90
23259;DHT22;11798;51.528;7.240;2023-02-01T05:32:45;5.20;99.90
23259;DHT22;11798;51.528;7.240;2023-02-01T05:35:10;5.20;99.90
23259;DHT22;11798;51.528;7.240;2023-02-01T05:37:36;5.20;99.90
23259;DHT22;11798;51.528;7.240;2023-02-01T05:40:01;5.20;99.90
23259;DHT22;11798;51.528;7.240;2023-02-01T05:42:27;5.10;99.90
23259;DHT22;11798;51.528;7.240;2023-02-01T05:44:52;5.10;99.90
23259;DHT22;11798;51.528;7.240;2023-02-01T05:47:18;5.10;99.90
23259;DHT22;11798;51.528;7.240;2023-02-01T05:49:45;5.10;99.90
23259;DHT22;11798;51.528;7.240;2023-02-01T05:52:11;5.10;99.90
23259;DHT22;11798;51.528;7.240;2023-02-01T05:54:36;5.10;99.90
23259;DHT22;11798;51.528;7.240;2023-02-01T05:57:02;5.10;99.90
23259;DHT22;11798;51.528;7.240;2023-02-01T05:59:27;5.10;99.90
23259;DHT22;11798;51.528;7.240;2023-02-01T06:01:53;5.10;99.90
23259;DHT22;11798;51.528;7.240;2023-02-01T06:04:18;5.10;99.90
23259;DHT22;11798;51.528;7.240;2023-02-01T06:06:44;5.10;99.90
23259;DHT22;11798;51.528;7.240;2023-02-01T06:09:10;5.10;99.90
23259;DHT22;11798;51.528;7.240;2023-02-01T06:11:35;5.10;99.90
23259;DHT22;11798;51.528;7.240;2023-02-01T06:14:01;5.10;99.90
23259;DHT22;11798;51.528;7.240;2023-02-01T06:16:26;5.20;99.90
23259;DHT22;11798;51.528;7.240;2023-02-01T06:18:52;5.10;99.90
23259;DHT22;11798;51.528;7.240;2023-02-01T06:21:19;5.10;99.90
23259;DHT22;11798;51.528;7.240;2023-02-01T06:23:52;5.10;99.90
23259;DHT22;11798;51.528;7.240;2023-02-01T06:26:18;5.10;99.90
23259;DHT22;11798;51.528;7.240;2023-02-01T06:28:44;5.10;99.90
23259;DHT22;11798;51.528;7.240;2023-02-01T06:31:10;5.20;99.90
23259;DHT22;11798;51.528;7.240;2023-02-01T06:33:36;5.20;99.90
23259;DHT22;11798;51.528;7.240;2023-02-01T06:36:04;5.10;99.90
23259;DHT22;11798;51.528;7.240;2023-02-01T06:38:30;5.10;99.90
23259;DHT22;11798;51.528;7.240;2023-02-01T06:40:57;5.20;99.90
23259;DHT22;11798;51.528;7.240;2023-02-01T06:43:23;5.20;99.90
23259;DHT22;11798;51.528;7.240;2023-02-01T06:45:50;5.20;99.90
23259;DHT22;11798;51.528;7.240;2023-02-01T06:48:16;5.20;99.90
23259;DHT22;11798;51.528;7.240;2023-02-01T06:50:41;5.20;99.90
23259;DHT22;11798;51.528;7.240;2023-02-01T06:53:07;5.20;99.90
23259;DHT22;11798;51.528;7.240;2023-02-01T06:55:32;5.20;99.90
23259;DHT22;11798;51.528;7.240;2023-02-01T06:57:58;5.20;99.90
23259;DHT22;11798;51.528;7.240;2023-02-01T07:00:23;5.20;99.90
23259;DHT22;11798;51.528;7.240;2023-02-01T07:02:50;5.20;99.90
23259;DHT22;11798;51.528;7.240;2023-02-01T07:05:16;5.20;99.90
23259;DHT22;11798;51.528;7.240;2023-02-01T07:07:41;5.20;99.90
23259;DHT22;11798;51.528;7.240;2023-02-01T07:10:07;5.20;99.90
23259;DHT22;11798;51.528;7.240;2023-02-01T07:12:33;5.20;99.90
23259;DHT22;11798;51.528;7.240;2023-02-01T07:14:59;5.20;99.90
23259;DHT22;11798;51.528;7.240;2023-02-01T07:17:24;5.30;99.90
23259;DHT22;11798;51.528;7.240;2023-02-01T07:19:50;5.30;99.90
23259;DHT22;11798;51.528;7.240;2023-02-01T07:22:18;5.30;99.90
23259;DHT22;11798;51.528;7.240;2023-02-01T07:24:44;5.30;99.90
23259;DHT22;11798;51.528;7.240;2023-02-01T07:27:09;5.30;99.90
23259;DHT22;11798;51.528;7.240;2023-02-01T07:29:35;5.40;99.90
23259;DHT22;11798;51.528;7.240;2023-02-01T07:32:00;5.30;99.90
23259;DHT22;11798;51.528;7.240;2023-02-01T07:34:27;5.40;99.90
23259;DHT22;11798;51.528;7.240;2023-02-01T07:36:53;5.30;99.90
23259;DHT22;11798;51.528;7.240;2023-02-01T07:39:19;5.40;99.90
23259;DHT22;11798;51.528;7.240;2023-02-01T07:41:45;5.40;99.90
23259;DHT22;11798;51.528;7.240;2023-02-01T07:44:11;5.40;99.90
23259;DHT22;11798;51.528;7.240;2023-02-01T07:46:36;5.40;99.90
23259;DHT22;11798;51.528;7.240;2023-02-01T07:49:04;5.40;99.90
23259;DHT22;11798;51.528;7.240;2023-02-01T07:51:29;5.40;99.90
23259;DHT22;11798;51.528;7.240;2023-02-01T07:53:55;5.40;99.90
23259;DHT22;11798;51.528;7.240;2023-02-01T07:56:20;5.40;99.90
23259;DHT22;11798;51.528;7.240;2023-02-01T07:58:52;5.40;99.90
23259;DHT22;11798;51.528;7.240;2023-02-01T08:01:20;5.40;99.90
23259;DHT22;11798;51.528;7.240;2023-02-01T08:04:07;5.40;99.90
23259;DHT22;11798;51.528;7.240;2023-02-01T08:06:34;5.40;99.90
23259;DHT22;11798;51.528;7.240;2023-02-01T08:09:00;5.40;99.90
23259;DHT22;11798;51.528;7.240;2023-02-01T08:11:26;5.40;99.90
23259;DHT22;11798;51.528;7.240;2023-02-01T08:13:52;5.40;99.90
23259;DHT22;11798;51.528;7.240;2023-02-01T08:16:19;5.40;99.90
23259;DHT22;11798;51.528;7.240;2023-02-01T08:18:45;5.40;99.90
23259;DHT22;11798;51.528;7.240;2023-02-01T08:21:13;5.40;99.90
23259;DHT22;11798;51.528;7.240;2023-02-01T08:23:40;5.40;99.90
23259;DHT22;11798;51.528;7.240;2023-02-01T08:26:18;5.50;99.90
23259;DHT22;11798;51.528;7.240;2023-02-01T08:28:56;5.50;99.90
23259;DHT22;11798;51.528;7.240;2023-02-01T08:31:23;5.50;99.90
23259;DHT22;11798;51.528;7.240;2023-02-01T08:33:52;5.50;99.90
23259;DHT22;11798;51.528;7.240;2023-02-01T08:36:18;5.50;99.90
23259;DHT22;11798;51.528;7.240;2023-02-01T08:38:44;5.50;99.90
23259;DHT22;11798;51.528;7.240;2023-02-01T08:41:14;5.60;99.90
23259;DHT22;11798;51.528;7.240;2023-02-01T08:43:41;5.60;99.90
23259;DHT22;11798;51.528;7.240;2023-02-01T08:46:07;5.50;99.90
23259;DHT22;11798;51.528;7.240;2023-02-01T08:48:33;5.60;99.90
23259;DHT22;11798;51.528;7.240;2023-02-01T08:51:08;5.60;99.90
23259;DHT22;11798;51.528;7.240;2023-02-01T08:53:35;5.70;99.90
23259;DHT22;11798;51.528;7.240;2023-02-01T08:56:01;5.70;99.90
23259;DHT22;11798;51.528;7.240;2023-02-01T08:58:27;5.70;99.90
23259;DHT22;11798;51.528;7.240;2023-02-01T09:00:53;5.70;99.90
23259;DHT22;11798;51.528;7.240;2023-02-01T09:03:18;5.70;99.90
23259;DHT22;11798;51.528;7.240;2023-02-01T09:05:44;5.70;99.90
23259;DHT22;11798;51.528;7.240;2023-02-01T09:08:11;5.70;99.90
23259;DHT22;11798;51.528;7.240;2023-02-01T09:10:40;5.60;99.90
23259;DHT22;11798;51.528;7.240;2023-02-01T09:13:06;5.70;99.90
23259;DHT22;11798;51.528;7.240;2023-02-01T09:15:33;5.70;99.90
23259;DHT22;11798;51.528;7.240;2023-02-01T09:17:58;5.80;99.90
23259;DHT22;11798;51.528;7.240;2023-02-01T09:20:24;5.70;99.90
23259;DHT22;11798;51.528;7.240;2023-02-01T09:22:51;5.70;99.90
23259;DHT22;11798;51.528;7.240;2023-02-01T09:25:17;5.70;99.90
23259;DHT22;11798;51.528;7.240;2023-02-01T09:27:43;5.80;99.90
23259;DHT22;11798;51.528;7.240;2023-02-01T09:30:09;5.80;99.90
23259;DHT22;11798;51.528;7.240;2023-02-01T09:32:35;5.70;99.90
23259;DHT22;11798;51.528;7.240;2023-02-01T09:35:01;5.70;99.90
23259;DHT22;11798;51.528;7.240;2023-02-01T09:37:27;5.80;99.90
23259;DHT22;11798;51.528;7.240;2023-02-01T09:39:52;5.90;99.90
23259;DHT22;11798;51.528;7.240;2023-02-01T09:47:27;5.90;99.90
23259;DHT22;11798;51.528;7.240;2023-02-01T09:50:13;5.90;99.90
23259;DHT22;11798;51.528;7.240;2023-02-01T09:56:14;5.90;99.90
23259;DHT22;11798;51.528;7.240;2023-02-01T09:58:59;5.90;99.90
23259;DHT22;11798;51.528;7.240;2023-02-01T10:01:28;5.90;99.90
23259;DHT22;11798;51.528;7.240;2023-02-01T10:04:24;5.90;99.90
23259;DHT22;11798;51.528;7.240;2023-02-01T10:12:34;6.00;99.90
23259;DHT22;11798;51.528;7.240;2023-02-01T10:15:28;6.00;99.90
23259;DHT22;11798;51.528;7.240;2023-02-01T10:18:49;6.10;99.90
23259;DHT22;11798;51.528;7.240;2023-02-01T10:26:54;6.20;99.90
23259;DHT22;11798;51.528;7.240;2023-02-01T10:29:24;6.20;99.90
23259;DHT22;11798;51.528;7.240;2023-02-01T10:31:52;6.20;99.90
23259;DHT22;11798;51.528;7.240;2023-02-01T10:34:22;6.20;99.90
23259;DHT22;11798;51.528;7.240;2023-02-01T10:39:59;6.20;99.90
23259;DHT22;11798;51.528;7.240;2023-02-01T10:42:27;6.20;99.90
23259;DHT22;11798;51.528;7.240;2023-02-01T10:44:56;6.20;99.90
23259;DHT22;11798;51.528;7.240;2023-02-01T10:47:22;6.20;99.90
23259;DHT22;11798;51.528;7.240;2023-02-01T10:50:13;6.20;99.90
23259;DHT22;11798;51.528;7.240;2023-02-01T10:52:46;6.20;99.90
23259;DHT22;11798;51.528;7.240;2023-02-01T10:55:46;6.10;99.90
23259;DHT22;11798;51.528;7.240;2023-02-01T10:58:35;6.10;99.90
23259;DHT22;11798;51.528;7.240;2023-02-01T11:01:09;6.20;99.90
23259;DHT22;11798;51.528;7.240;2023-02-01T11:04:05;6.20;99.90
23259;DHT22;11798;51.528;7.240;2023-02-01T11:06:43;6.20;99.90
23259;DHT22;11798;51.528;7.240;2023-02-01T11:09:18;6.20;99.90
23259;DHT22;11798;51.528;7.240;2023-02-01T11:14:27;6.20;99.90
23259;DHT22;11798;51.528;7.240;2023-02-01T11:19:47;6.30;99.90
23259;DHT22;11798;51.528;7.240;2023-02-01T11:22:21;6.30;99.90
23259;DHT22;11798;51.528;7.240;2023-02-01T11:24:46;6.30;99.90
23259;DHT22;11798;51.528;7.240;2023-02-01T11:27:17;6.30;99.90
23259;DHT22;11798;51.528;7.240;2023-02-01T11:29:48;6.30;99.90
23259;DHT22;11798;51.528;7.240;2023-02-01T11:32:17;6.30;99.90
23259;DHT22;11798;51.528;7.240;2023-02-01T11:34:51;6.30;99.90
23259;DHT22;11798;51.528;7.240;2023-02-01T11:37:19;6.40;99.90
23259;DHT22;11798;51.528;7.240;2023-02-01T11:39:54;6.40;99.90
23259;DHT22;11798;51.528;7.240;2023-02-01T11:42:21;6.40;99.90
23259;DHT22;11798;51.528;7.240;2023-02-01T11:44:47;6.40;99.90
23259;DHT22;11798;51.528;7.240;2023-02-01T11:49:54;6.40;99.90
23259;DHT22;11798;51.528;7.240;2023-02-01T11:52:46;6.40;99.90
23259;DHT22;11798;51.528;7.240;2023-02-01T12:01:28;6.30;99.90
23259;DHT22;11798;51.528;7.240;2023-02-01T12:07:00;6.10;99.90
23259;DHT22;11798;51.528;7.240;2023-02-01T12:15:04;5.80;99.90
23259;DHT22;11798;51.528;7.240;2023-02-01T12:26:20;5.90;99.90
23259;DHT22;11798;51.528;7.240;2023-02-01T12:29:11;5.80;99.90
23259;DHT22;11798;51.528;7.240;2023-02-01T12:42:53;5.90;99.90
23259;DHT22;11798;51.528;7.240;2023-02-01T12:48:02;6.00;99.90
23259;DHT22;11798;51.528;7.240;2023-02-01T12:50:39;6.00;99.90
23259;DHT22;11798;51.528;7.240;2023-02-01T12:53:15;6.00;99.90
23259;DHT22;11798;51.528;7.240;2023-02-01T12:55:54;6.10;99.90
23259;DHT22;11798;51.528;7.240;2023-02-01T12:58:45;6.10;99.90
23259;DHT22;11798;51.528;7.240;2023-02-01T13:07:02;6.20;99.90
23259;DHT22;11798;51.528;7.240;2023-02-01T13:09:29;6.20;99.90
23259;DHT22;11798;51.528;7.240;2023-02-01T13:12:04;6.20;99.90
23259;DHT22;11798;51.528;7.240;2023-02-01T13:14:52;6.20;99.90
23259;DHT22;11798;51.528;7.240;2023-02-01T13:17:28;6.20;99.90
23259;DHT22;11798;51.528;7.240;2023-02-01T13:20:07;6.30;99.90
23259;DHT22;11798;51.528;7.240;2023-02-01T13:22:39;6.30;99.90
23259;DHT22;11798;51.528;7.240;2023-02-01T13:25:13;6.40;99.90
23259;DHT22;11798;51.528;7.240;2023-02-01T13:27:41;6.40;99.90
23259;DHT22;11798;51.528;7.240;2023-02-01T13:36:03;6.50;99.90
23259;DHT22;11798;51.528;7.240;2023-02-01T13:38:44;6.60;99.90
23259;DHT22;11798;51.528;7.240;2023-02-01T13:43:53;6.50;99.90
23259;DHT22;11798;51.528;7.240;2023-02-01T13:46:19;6.60;99.90
23259;DHT22;11798;51.528;7.240;2023-02-01T13:51:34;6.60;99.90
23259;DHT22;11798;51.528;7.240;2023-02-01T13:54:01;6.60;99.90
23259;DHT22;11798;51.528;7.240;2023-02-01T13:56:27;6.70;99.90
23259;DHT22;11798;51.528;7.240;2023-02-01T13:58:53;6.70;99.90
23259;DHT22;11798;51.528;7.240;2023-02-01T14:11:50;6.90;99.90
23259;DHT22;11798;51.528;7.240;2023-02-01T14:19:29;6.90;99.90
23259;DHT22;11798;51.528;7.240;2023-02-01T14:22:31;7.00;99.90
23259;DHT22;11798;51.528;7.240;2023-02-01T14:24:56;7.00;99.90
23259;DHT22;11798;51.528;7.240;2023-02-01T14:27:34;7.00;99.90
23259;DHT22;11798;51.528;7.240;2023-02-01T14:30:05;7.00;99.90
23259;DHT22;11798;51.528;7.240;2023-02-01T14:32:41;7.00;99.90
23259;DHT22;11798;51.528;7.240;2023-02-01T14:35:18;7.00;99.90
23259;DHT22;11798;51.528;7.240;2023-02-01T14:37:46;7.00;99.90
23259;DHT22;11798;51.528;7.240;2023-02-01T14:40:25;7.00;99.90
23259;DHT22;11798;51.528;7.240;2023-02-01T14:42:52;7.00;99.90
23259;DHT22;11798;51.528;7.240;2023-02-01T14:47:52;7.00;99.90
23259;DHT22;11798;51.528;7.240;2023-02-01T14:58:16;7.00;99.90
23259;DHT22;11798;51.528;7.240;2023-02-01T15:00:56;7.00;99.90
23259;DHT22;11798;51.528;7.240;2023-02-01T15:05:57;7.00;99.90
23259;DHT22;11798;51.528;7.240;2023-02-01T15:08:36;7.00;99.90
23259;DHT22;11798;51.528;7.240;2023-02-01T15:11:14;7.00;99.90
23259;DHT22;11798;51.528;7.240;2023-02-01T15:13:40;7.00;99.90
23259;DHT22;11798;51.528;7.240;2023-02-01T15:16:12;6.90;99.90
23259;DHT22;11798;51.528;7.240;2023-02-01T15:18:38;6.90;99.90
23259;DHT22;11798;51.528;7.240;2023-02-01T15:21:05;6.90;99.90
23259;DHT22;11798;51.528;7.240;2023-02-01T15:23:32;6.90;99.90
23259;DHT22;11798;51.528;7.240;2023-02-01T15:25:58;7.00;99.90
23259;DHT22;11798;51.528;7.240;2023-02-01T15:28:25;7.00;99.90
23259;DHT22;11798;51.528;7.240;2023-02-01T15:33:19;6.90;99.90
23259;DHT22;11798;51.528;7.240;2023-02-01T15:35:54;6.90;99.90
23259;DHT22;11798;51.528;7.240;2023-02-01T15:41:05;6.90;99.90
23259;DHT22;11798;51.528;7.240;2023-02-01T15:46:16;6.90;99.90
23259;DHT22;11798;51.528;7.240;2023-02-01T15:48:49;6.90;99.90
23259;DHT22;11798;51.528;7.240;2023-02-01T15:51:18;6.90;99.90
23259;DHT22;11798;51.528;7.240;2023-02-01T15:54:05;7.00;99.90
23259;DHT22;11798;51.528;7.240;2023-02-01T15:56:40;7.00;99.90
23259;DHT22;11798;51.528;7.240;2023-02-01T15:59:21;7.00;99.90
23259;DHT22;11798;51.528;7.240;2023-02-01T16:01:47;7.00;99.90
23259;DHT22;11798;51.528;7.240;2023-02-01T16:07:21;7.00;99.90
23259;DHT22;11798;51.528;7.240;2023-02-01T16:09:54;7.10;99.90
23259;DHT22;11798;51.528;7.240;2023-02-01T16:12:45;7.00;99.90
23259;DHT22;11798;51.528;7.240;2023-02-01T16:15:11;7.00;99.90
23259;DHT22;11798;51.528;7.240;2023-02-01T16:17:37;7.00;99.90
23259;DHT22;11798;51.528;7.240;2023-02-01T16:20:03;7.00;99.90
23259;DHT22;11798;51.528;7.240;2023-02-01T16:22:29;7.00;99.90
23259;DHT22;11798;51.528;7.240;2023-02-01T16:24:54;7.00;99.90
23259;DHT22;11798;51.528;7.240;2023-02-01T16:27:20;7.00;99.90
23259;DHT22;11798;51.528;7.240;2023-02-01T16:29:47;7.00;99.90
23259;DHT22;11798;51.528;7.240;2023-02-01T16:32:18;7.00;99.90
23259;DHT22;11798;51.528;7.240;2023-02-01T16:34:45;7.00;99.90
23259;DHT22;11798;51.528;7.240;2023-02-01T16:37:13;7.00;99.90
23259;DHT22;11798;51.528;7.240;2023-02-01T16:39:39;7.00;99.90
23259;DHT22;11798;51.528;7.240;2023-02-01T16:42:13;7.00;99.90
23259;DHT22;11798;51.528;7.240;2023-02-01T16:44:39;6.90;99.90
23259;DHT22;11798;51.528;7.240;2023-02-01T16:47:16;6.90;99.90
23259;DHT22;11798;51.528;7.240;2023-02-01T16:49:42;6.80;99.90
23259;DHT22;11798;51.528;7.240;2023-02-01T16:52:15;6.70;99.90
23259;DHT22;11798;51.528;7.240;2023-02-01T16:54:41;6.70;99.90
23259;DHT22;11798;51.528;7.240;2023-02-01T16:57:11;6.60;99.90
23259;DHT22;11798;51.528;7.240;2023-02-01T16:59:37;6.60;99.90
23259;DHT22;11798;51.528;7.240;2023-02-01T17:02:03;6.60;99.90
23259;DHT22;11798;51.528;7.240;2023-02-01T17:04:29;6.50;99.90
23259;DHT22;11798;51.528;7.240;2023-02-01T17:06:54;6.60;99.90
23259;DHT22;11798;51.528;7.240;2023-02-01T17:09:20;6.10;99.90
23259;DHT22;11798;51.528;7.240;2023-02-01T17:11:46;5.80;99.90
23259;DHT22;11798;51.528;7.240;2023-02-01T17:14:16;5.70;99.90
23259;DHT22;11798;51.528;7.240;2023-02-01T17:16:44;5.70;99.90
23259;DHT22;11798;51.528;7.240;2023-02-01T17:19:13;5.60;99.90
23259;DHT22;11798;51.528;7.240;2023-02-01T17:21:52;5.50;99.90
23259;DHT22;11798;51.528;7.240;2023-02-01T17:24:21;5.40;99.90
23259;DHT22;11798;51.528;7.240;2023-02-01T17:26:47;5.30;99.90
23259;DHT22;11798;51.528;7.240;2023-02-01T17:29:15;5.30;99.90
23259;DHT22;11798;51.528;7.240;2023-02-01T17:31:43;5.20;99.90
23259;DHT22;11798;51.528;7.240;2023-02-01T17:34:11;5.20;99.90
23259;DHT22;11798;51.528;7.240;2023-02-01T17:36:40;5.20;99.90
23259;DHT22;11798;51.528;7.240;2023-02-01T17:39:05;5.20;99.90
23259;DHT22;11798;51.528;7.240;2023-02-01T17:41:32;5.20;99.90
23259;DHT22;11798;51.528;7.240;2023-02-01T17:43:57;5.20;99.90
23259;DHT22;11798;51.528;7.240;2023-02-01T17:46:23;5.20;99.90
23259;DHT22;11798;51.528;7.240;2023-02-01T17:48:53;5.20;99.90
23259;DHT22;11798;51.528;7.240;2023-02-01T17:51:25;5.30;99.90
23259;DHT22;11798;51.528;7.240;2023-02-01T17:53:54;5.30;99.90
23259;DHT22;11798;51.528;7.240;2023-02-01T17:56:22;5.40;99.90
23259;DHT22;11798;51.528;7.240;2023-02-01T17:58:48;5.40;99.90
23259;DHT22;11798;51.528;7.240;2023-02-01T18:01:22;5.50;99.90
23259;DHT22;11798;51.528;7.240;2023-02-01T18:03:48;5.50;99.90
23259;DHT22;11798;51.528;7.240;2023-02-01T18:06:17;5.60;99.90
23259;DHT22;11798;51.528;7.240;2023-02-01T18:08:44;5.60;99.90
23259;DHT22;11798;51.528;7.240;2023-02-01T18:11:16;5.70;99.90
23259;DHT22;11798;51.528;7.240;2023-02-01T18:13:41;5.70;99.90
23259;DHT22;11798;51.528;7.240;2023-02-01T18:16:25;5.70;99.90
23259;DHT22;11798;51.528;7.240;2023-02-01T18:18:52;5.80;99.90
23259;DHT22;11798;51.528;7.240;2023-02-01T18:21:20;5.90;99.90
23259;DHT22;11798;51.528;7.240;2023-02-01T18:23:46;5.90;99.90
23259;DHT22;11798;51.528;7.240;2023-02-01T18:26:14;5.90;99.90
23259;DHT22;11798;51.528;7.240;2023-02-01T18:28:40;5.90;99.90
23259;DHT22;11798;51.528;7.240;2023-02-01T18:31:13;5.70;99.90
23259;DHT22;11798;51.528;7.240;2023-02-01T18:33:41;5.40;99.90
23259;DHT22;11798;51.528;7.240;2023-02-01T18:36:11;5.00;99.90
23259;DHT22;11798;51.528;7.240;2023-02-01T18:38:37;4.70;99.90
23259;DHT22;11798;51.528;7.240;2023-02-01T18:41:03;4.50;99.90
23259;DHT22;11798;51.528;7.240;2023-02-01T18:43:30;4.50;99.90
23259;DHT22;11798;51.528;7.240;2023-02-01T18:45:56;4.50;99.90